createdAt,value
2023-05-08T00:04:17.960Z,62.30
2023-05-08T00:09:21.651Z,62.14
2023-05-08T00:14:25.102Z,62.18
2023-05-08T00:19:28.261Z,61.69
2023-05-08T00:24:31.616Z,61.66
2023-05-08T00:29:35.362Z,61.64
2023-05-08T00:34:38.445Z,61.43
2023-05-08T00:39:41.580Z,61.47
2023-05-08T00:44:46.075Z,61.57
2023-05-08T00:49:50.061Z,61.43
2023-05-08T00:54:54.353Z,61.49
2023-05-08T01:00:00.170Z,61.53
2023-05-08T01:05:04.189Z,61.83
2023-05-08T01:10:08.302Z,62.00
2023-05-08T01:15:20.700Z,61.97
2023-05-08T01:20:39.202Z,62.18
2023-05-08T01:26:03.689Z,62.35
2023-05-08T01:31:40.751Z,62.44
2023-05-08T01:37:11.793Z,62.91
2023-05-08T01:42:37.077Z,62.57
2023-05-08T01:47:42.923Z,62.41
2023-05-08T01:52:51.067Z,62.44
2023-05-08T01:57:58.393Z,62.21
2023-05-08T02:03:02.821Z,62.08
2023-05-08T02:08:09.401Z,62.09
2023-05-08T02:13:19.310Z,62.02
2023-05-08T02:18:25.776Z,61.99
2023-05-08T02:23:30.498Z,62.12
2023-05-08T02:28:35.555Z,62.00
2023-05-08T02:33:43.357Z,61.83
2023-05-08T02:38:51.644Z,61.82
2023-05-08T02:43:55.996Z,61.78
2023-05-08T02:49:05.262Z,61.70
2023-05-08T02:54:11.757Z,61.77
2023-05-08T02:59:29.099Z,61.38
2023-05-08T03:04:40.574Z,61.01
2023-05-08T03:09:48.405Z,61.10
2023-05-08T03:15:07.080Z,61.12
2023-05-08T03:20:17.350Z,60.79
2023-05-08T03:25:22.074Z,60.94
2023-05-08T03:30:27.816Z,60.80
2023-05-08T03:35:42.810Z,61.09
2023-05-08T03:40:47.142Z,61.20
2023-05-08T03:45:51.532Z,60.96
2023-05-08T03:50:55.863Z,61.13
2023-05-08T03:56:00.972Z,60.85
2023-05-08T04:01:25.152Z,60.89
2023-05-08T04:06:49.312Z,60.99
2023-05-08T04:12:05.399Z,60.95
2023-05-08T04:17:16.283Z,60.56
2023-05-08T04:22:23.574Z,60.88
2023-05-08T04:27:27.794Z,61.07
2023-05-08T04:32:41.312Z,61.09
2023-05-08T04:37:47.479Z,61.00
2023-05-08T04:42:51.473Z,61.18
2023-05-08T04:47:55.566Z,61.03
2023-05-08T04:52:59.068Z,61.24
2023-05-08T04:58:03.080Z,61.27
2023-05-08T05:03:06.943Z,61.16
2023-05-08T05:08:10.445Z,61.25
2023-05-08T05:13:13.680Z,61.44
2023-05-08T05:18:17.339Z,61.49
2023-05-08T05:23:20.821Z,61.32
2023-05-08T05:28:24.165Z,61.25
2023-05-08T05:33:27.568Z,61.03
2023-05-08T05:38:31.117Z,60.79
2023-05-08T05:43:34.643Z,60.75
2023-05-08T05:48:41.912Z,60.22
2023-05-08T05:53:45.743Z,60.23
2023-05-08T05:58:49.426Z,60.11
2023-05-08T06:03:53.313Z,60.09
2023-05-08T06:08:57.057Z,59.97
2023-05-08T06:14:00.187Z,59.88
2023-05-08T06:19:03.839Z,59.51
2023-05-08T06:24:07.955Z,59.35
2023-05-08T06:29:11.299Z,59.42
2023-05-08T06:34:14.762Z,59.65
2023-05-08T06:39:18.552Z,59.93
2023-05-08T06:44:21.784Z,59.85
2023-05-08T06:49:24.879Z,59.51
2023-05-08T06:54:34.748Z,59.36
2023-05-08T06:59:42.591Z,59.17
2023-05-08T07:04:46.646Z,58.80
2023-05-08T07:09:50.023Z,58.40
2023-05-08T07:14:54.275Z,57.35
2023-05-08T07:19:59.057Z,57.01
2023-05-08T07:25:02.462Z,57.21
2023-05-08T07:30:06.422Z,57.17
2023-05-08T07:35:14.352Z,56.76
2023-05-08T07:40:17.905Z,56.28
2023-05-08T07:45:21.337Z,56.23
2023-05-08T07:50:26.198Z,56.76
2023-05-08T07:55:33.582Z,56.63
2023-05-08T08:00:38.073Z,55.95
2023-05-08T08:05:42.290Z,55.69
2023-05-08T08:10:45.659Z,55.18
2023-05-08T08:15:48.992Z,55.52
2023-05-08T08:20:52.360Z,54.47
2023-05-08T08:25:55.785Z,52.89
2023-05-08T08:30:59.260Z,52.32
2023-05-08T08:36:03.963Z,52.73
2023-05-08T08:41:07.399Z,53.10
2023-05-08T08:46:16.148Z,52.52
2023-05-08T08:52:04.308Z,52.62
2023-05-08T08:57:09.223Z,52.17
2023-05-08T09:02:20.438Z,52.38
2023-05-08T09:07:24.694Z,52.04
2023-05-08T09:12:28.139Z,51.65
2023-05-08T09:17:31.653Z,51.76
2023-05-08T09:22:39.126Z,50.98
2023-05-08T09:27:43.003Z,51.27
2023-05-08T09:32:46.578Z,51.46
2023-05-08T09:38:07.851Z,51.16
2023-05-08T09:43:14.189Z,51.97
2023-05-08T09:48:17.228Z,51.10
2023-05-08T09:53:20.327Z,51.22
2023-05-08T09:58:25.112Z,51.41
2023-05-08T10:03:47.283Z,51.01
2023-05-08T10:09:09.159Z,51.20
2023-05-08T10:14:12.231Z,51.05
2023-05-08T10:19:20.494Z,51.00
2023-05-08T10:24:33.788Z,50.39
2023-05-08T10:29:52.720Z,50.74
2023-05-08T10:35:03.456Z,50.95
2023-05-08T10:40:07.191Z,50.67
2023-05-08T10:45:11.525Z,50.31
2023-05-08T10:50:23.569Z,49.31
2023-05-08T10:55:31.421Z,49.29
2023-05-08T11:00:57.131Z,48.86
2023-05-08T11:06:01.144Z,49.22
2023-05-08T11:11:17.551Z,49.41
2023-05-08T11:16:55.543Z,49.39
2023-05-08T11:22:23.904Z,49.23
2023-05-08T11:27:35.738Z,49.06
2023-05-08T11:33:04.042Z,49.42
2023-05-08T11:38:36.897Z,49.28
2023-05-08T11:43:45.623Z,49.05
2023-05-08T11:48:49.174Z,49.06
2023-05-08T11:53:52.657Z,49.22
2023-05-08T11:59:06.085Z,49.55
2023-05-08T12:04:12.309Z,48.94
2023-05-08T12:09:17.843Z,48.74
2023-05-08T12:14:23.277Z,48.20
2023-05-08T12:19:26.503Z,47.79
2023-05-08T12:24:30.848Z,47.69
2023-05-08T12:29:36.355Z,47.25
2023-05-08T12:34:41.809Z,47.08
2023-05-08T12:39:47.955Z,47.35
2023-05-08T12:44:52.603Z,47.37
2023-05-08T12:49:58.169Z,47.20
2023-05-08T12:55:01.190Z,47.53
2023-05-08T13:00:14.223Z,46.54
2023-05-08T13:05:20.275Z,45.46
2023-05-08T13:10:24.491Z,45.30
2023-05-08T13:15:28.958Z,45.95
2023-05-08T13:25:31.128Z,46.68
2023-05-08T13:30:36.885Z,46.49
2023-05-08T13:35:41.072Z,45.84
2023-05-08T13:40:44.590Z,45.43
2023-05-08T13:45:48.406Z,45.31
2023-05-08T13:50:51.777Z,45.15
2023-05-08T13:55:55.365Z,45.46
2023-05-08T14:01:00.373Z,44.23
2023-05-08T14:06:08.837Z,43.29
2023-05-08T14:11:15.459Z,42.90
2023-05-08T14:22:33.108Z,44.04
2023-05-08T14:27:58.514Z,44.24
2023-05-08T14:33:04.536Z,44.85
2023-05-08T14:38:08.181Z,44.95
2023-05-08T14:48:57.595Z,43.61
2023-05-08T14:54:01.543Z,43.88
2023-05-08T14:59:09.875Z,43.88
2023-05-08T15:25:37.119Z,44.32
2023-05-08T15:30:41.264Z,44.70
2023-05-08T15:35:49.071Z,44.79
2023-05-08T15:41:00.501Z,44.79
2023-05-08T15:46:04.424Z,44.55
2023-05-08T15:51:30.388Z,44.54
2023-05-08T15:57:09.746Z,43.37
2023-05-08T16:02:14.783Z,42.52
2023-05-08T16:07:48.724Z,42.54
2023-05-08T16:13:09.801Z,42.33
2023-05-08T16:18:13.352Z,42.25
2023-05-08T16:23:37.853Z,42.45
2023-05-08T16:28:59.689Z,42.94
2023-05-08T16:34:28.679Z,43.24
2023-05-08T16:40:14.699Z,43.44
2023-05-08T16:45:20.356Z,44.04
2023-05-08T16:56:32.842Z,44.47
2023-05-08T17:07:22.571Z,44.66
2023-05-08T17:12:40.303Z,45.21
2023-05-08T17:24:21.038Z,45.42
2023-05-08T17:35:58.092Z,45.30
2023-05-08T17:41:18.704Z,45.60
2023-05-08T17:46:22.710Z,45.98
2023-05-08T17:51:29.307Z,46.17
2023-05-08T17:56:32.590Z,46.51
2023-05-08T18:01:44.222Z,46.65
2023-05-08T18:12:54.730Z,47.57
2023-05-08T18:24:26.656Z,48.70
2023-05-08T18:29:49.773Z,48.73
2023-05-08T18:35:24.591Z,48.68
2023-05-08T18:40:42.621Z,49.40
2023-05-08T18:46:14.812Z,50.30
2023-05-08T18:58:00.722Z,50.70
2023-05-08T19:03:19.902Z,51.35
2023-05-08T19:08:25.667Z,51.81
2023-05-08T19:13:34.455Z,52.15
2023-05-08T19:18:37.957Z,52.81
2023-05-08T19:23:44.837Z,52.91
2023-05-08T19:28:49.057Z,53.11
2023-05-08T19:33:52.789Z,53.00
2023-05-08T19:38:56.110Z,53.39
2023-05-08T19:44:01.763Z,53.60
2023-05-08T19:49:05.389Z,54.81
2023-05-08T19:54:08.845Z,54.74
2023-05-08T19:59:15.061Z,53.94
2023-05-08T20:04:18.396Z,54.13
2023-05-08T20:09:21.831Z,54.45
2023-05-08T20:14:25.189Z,54.69
2023-05-08T20:19:28.555Z,54.86
2023-05-08T20:24:31.881Z,55.09
2023-05-08T20:29:35.528Z,55.50
2023-05-08T20:34:39.068Z,55.66
2023-05-08T20:39:42.920Z,55.97
2023-05-08T20:44:46.228Z,56.29
2023-05-08T20:49:49.685Z,56.16
2023-05-08T20:54:52.977Z,56.35
2023-05-08T20:59:56.379Z,56.48
2023-05-08T21:04:59.916Z,56.88
2023-05-08T21:10:03.739Z,56.95
2023-05-08T21:15:07.886Z,57.00
2023-05-08T21:20:11.655Z,57.28
2023-05-08T21:25:15.914Z,57.71
2023-05-08T21:30:19.662Z,57.85
2023-05-08T21:35:22.993Z,57.98
2023-05-08T21:40:26.439Z,58.19
2023-05-08T21:45:33.249Z,58.26
2023-05-08T21:50:36.704Z,58.28
2023-05-08T21:55:44.649Z,58.81
2023-05-08T22:00:56.293Z,58.79
2023-05-08T22:06:12.132Z,58.86
2023-05-08T22:11:42.316Z,58.76
2023-05-08T22:16:45.803Z,58.93
2023-05-08T22:21:48.916Z,58.96
2023-05-08T22:26:52.009Z,59.00
2023-05-08T22:31:55.924Z,59.09
2023-05-08T22:37:00.246Z,59.23
2023-05-08T22:42:03.692Z,59.21
2023-05-08T22:47:06.961Z,59.30
2023-05-08T22:52:10.195Z,59.57
2023-05-08T22:57:14.396Z,59.84
2023-05-08T23:02:17.520Z,60.01
2023-05-08T23:07:20.661Z,60.18
2023-05-08T23:12:23.874Z,60.35
2023-05-08T23:17:27.085Z,60.53
2023-05-08T23:22:30.329Z,60.47
2023-05-08T23:27:33.401Z,60.57
2023-05-08T23:32:38.393Z,60.82
2023-05-08T23:37:42.065Z,61.07
2023-05-08T23:42:45.458Z,61.02
2023-05-08T23:47:49.521Z,61.24
2023-05-08T23:52:52.764Z,61.13
2023-05-08T23:57:57.158Z,61.43
